Air Resources Laboratory banner image
Air Resources Laboratory web site National Oceanic and Atmospheric Administration (NOAA)

wi metar


KAIG 200855Z AUTO 12005KT 10SM OVC004 13/13 A3005 RMK AO2 60001 T01250125=
KAIG 200915Z AUTO 12006KT 10SM OVC004 13/13 A3006 RMK AO2 T01250125=
KAIG 200935Z AUTO 09004KT 5SM BR OVC004 13/13 A3006 RMK AO2 T01250125=
KARV 200855Z AUTO 00000KT 3SM BR OVC003 14/13 A3005 RMK AO2 T01380128=
KASX 200853Z AUTO 06006KT 9SM OVC014 13/13 A3008 RMK AO2 SLP187 T01330133 55001=
KATW 200855Z AUTO 07005KT 7SM DZ SCT006 BKN046 OVC050 15/15 A3001 RMK AO2=
KAUW 200854Z AUTO 11007KT 10SM OVC006 14/13 A3002 RMK AO2 SLP171 60001
 T01390133 58007=
KCLI 200855Z AUTO 09004KT 10SM OVC004 15/14 A3004 RMK AO2 T01480140=
KCMY 200855Z AUTO 00000KT 5SM -RA BKN007 OVC034 15/15 A3000 RMK AO2 T01450145=
KCWA 200855Z AUTO 10006KT 5SM BR OVC004 13/13 A3004 RMK AO2=
KDLL 200855Z AUTO 27003KT 5SM -RA SCT005 SCT032 OVC095 16/15 A2998 RMK AO2
 P0005 60044 T01580151=
KEAU 200856Z AUTO 05004KT 4SM BR OVC003 16/16 A2999 RMK AO2 SLP155 T01610161
 58004=
KEFT 200855Z AUTO 08007KT 5SM +RA OVC003 18/18 A2997 RMK AO2 P0016 60075
 T01800175=
KEGV 200855Z AUTO 08003KT 3SM BR OVC004 13/13 A3006 RMK AO2 T01250125=
KENW 200853Z AUTO 03007KT 9SM BKN004 19/19 A2997 RMK AO2 LTG DSNT NW SLP147
 T01940194 58011=
KETB 200855Z AUTO 36003KT 5SM RA BKN004 BKN012 OVC050 16/16 A3002 RMK AO2=
KFLD 200853Z AUTO 04003KT 6SM RA BR FEW065 OVC100 16/16 A3002 RMK AO2 SLP165
 P0013 60022 T01610161 58010=
KGRB 200853Z AUTO 03005KT 10SM BKN008 BKN065 OVC075 16/15 A3004 RMK AO2 SLP171
 T01610150 56004=
KHYR 200853Z AUTO 04007KT 10SM OVC006 13/13 A3005 RMK AO2 SLP179 T01330133
 57006=
KISW 200854Z AUTO 08007KT 7SM BKN005 BKN033 BKN120 16/14 A3001 RMK AO2 SLP162
 60002 T01560139 56016 TSNO=
KJVL 200855Z AUTO 07009KT 2SM +RA SCT006 BKN015 BKN024 17/17 A2997 RMK AO2
 P0037=
KLSE 200853Z AUTO 09003KT 8SM -RA BKN110 19/18 A2996 RMK AO2 SLP141 P0006 60017
 T01890183 50004=
KMDZ 200855Z AUTO 09006KT 1SM BR OVC003 13/13 A3003 RMK AO2 60001 T01330132=
KMFI 200854Z AUTO 07008KT 6SM BR OVC006 16/15 A3001 RMK AO2 SLP162 T01560150
 56007=
KMKE 200852Z 02007KT 10SM BKN004 OVC038 20/19 A2998 RMK AO2 LTG DSNT SW AND W
 RAE41 SLP149 P0000 60004 T02000189 58014=
KMRJ 200855Z AUTO 07005KT 3SM -RA SCT007 SCT021 BKN030 18/ A2997 RMK AO2 P0022=
KMSN 200853Z AUTO 00000KT 10SM BKN004 16/16 A2996 RMK AO2 RAE42 SLP143 P0007
 60029 T01610156 55020=
KMTW 200856Z AUTO 33004KT 10SM -RA SCT050 OVC055 17/16 A3004 RMK AO2 SLP188
 P0001 60001 T01670161 58007=
KMWC 200855Z AUTO 35004KT 7SM RA SCT046 BKN100 OVC120 17/15 A3001 RMK AO2 P0002=
KOEO 200855Z AUTO 05004KT 10SM OVC006 14/13 A3003 RMK AO2 T01420133=
KOSH 200853Z AUTO 07005KT 5SM RA BR OVC006 17/16 A3002 RMK AO2 SLP158 P0013
 60017 T01670161 58006=
KOVS 200853Z AUTO 36003KT 5SM -RA BR BKN003 BKN007 OVC080 18/17 A2998 RMK AO2
 SLP151 P0008 60024 T01780167 56014=
KPBH 200855Z AUTO 06003KT 4SM BR OVC003 13/13 A3004 RMK AO2 T01330133=
KPDC 200855Z AUTO 11009KT 10SM -RA SCT012 BKN065 OVC100 18/17 A2996 RMK AO2
 T01770172=
KRAC 200853Z AUTO 03009KT 10SM BKN037 20/19 A2998 RMK AO2 LTG DSNT W SLP151
 T02000189 58007=
KRHI 200853Z AUTO 09004KT 4SM BR BKN005 OVC008 14/14 A3006 RMK AO2 RAE10 SLP180
 P0001 60002 T01440144 58008=
KRPD 200855Z AUTO 03005KT 7SM OVC004 14/04 A3003 RMK AO2 T01380042=
KRRL 200855Z AUTO 10003KT 5SM BR OVC004 14/14 A3005 RMK AO2 T01380138 TSNO=
KRYV 200855Z AUTO 06004KT 7SM -RA SCT014 SCT038 OVC100 16/16 A2998 RMK AO2
 P0010 60015 T01600160=
KSTE 200855Z AUTO 09008KT 7SM OVC006 14/14 A3002 RMK AO2 T01400140=
KSUE 200856Z AUTO 05004KT 10SM BKN012 BKN042 OVC065 16/15 A3005 RMK AO2 SLP196
 60000 T01560150 58005=
KSUW 200855Z AUTO 06006KT 10SM BKN012 OVC018 14/12 A3007 RMK AO2 T01350117=
KUES 200855Z AUTO 36007KT 5SM RA BKN042 BKN050 OVC070 16/16 A2999 RMK AO2 P0002=
KUNU 200855Z AUTO 07005KT 5SM RA SCT009 BKN065 OVC075 15/15 A3001 RMK AO2 P0011=